sensor_id;sensor_type;location;lat;lon;timestamp;pressure;altitude;pressure_sealevel;temperature;humidity
20160;BME280;50187;50.492;12.134;2023-09-19T00:01:34;96982.63;;;23.74;46.95
20160;BME280;50187;50.492;12.134;2023-09-19T00:04:01;96980.75;;;23.74;46.77
20160;BME280;50187;50.492;12.134;2023-09-19T00:06:29;96990.78;;;23.74;46.84
20160;BME280;50187;50.492;12.134;2023-09-19T00:08:58;96969.00;;;23.67;47.06
20160;BME280;50187;50.492;12.134;2023-09-19T00:11:27;96982.63;;;23.74;46.79
20160;BME280;50187;50.492;12.134;2023-09-19T00:13:53;96986.38;;;23.73;46.83
20160;BME280;50187;50.492;12.134;2023-09-19T00:16:20;96986.16;;;23.74;46.77
20160;BME280;50187;50.492;12.134;2023-09-19T00:18:47;96988.25;;;23.72;46.62
20160;BME280;50187;50.492;12.134;2023-09-19T00:21:15;96980.31;;;23.71;46.74
20160;BME280;50187;50.492;12.134;2023-09-19T00:23:41;96984.69;;;23.72;46.96
20160;BME280;50187;50.492;12.134;2023-09-19T00:26:08;96989.94;;;23.73;46.85
20160;BME280;50187;50.492;12.134;2023-09-19T00:28:36;96992.84;;;23.72;46.77
20160;BME280;50187;50.492;12.134;2023-09-19T00:31:02;96981.97;;;23.72;46.93
20160;BME280;50187;50.492;12.134;2023-09-19T00:33:30;96981.13;;;23.71;46.95
20160;BME280;50187;50.492;12.134;2023-09-19T00:35:57;96972.53;;;23.67;46.89
20160;BME280;50187;50.492;12.134;2023-09-19T00:38:24;96974.03;;;23.70;46.95
20160;BME280;50187;50.492;12.134;2023-09-19T00:40:54;96978.63;;;23.70;46.84
20160;BME280;50187;50.492;12.134;2023-09-19T00:43:24;96978.63;;;23.70;46.72
20160;BME280;50187;50.492;12.134;2023-09-19T00:45:54;96976.53;;;23.72;46.95
20160;BME280;50187;50.492;12.134;2023-09-19T00:48:22;96982.38;;;23.69;46.86
20160;BME280;50187;50.492;12.134;2023-09-19T00:50:49;96973.81;;;23.72;46.99
20160;BME280;50187;50.492;12.134;2023-09-19T00:53:19;96974.22;;;23.69;46.79
20160;BME280;50187;50.492;12.134;2023-09-19T00:55:48;96975.72;;;23.71;46.94
20160;BME280;50187;50.492;12.134;2023-09-19T00:58:17;96979.44;;;23.70;46.95
20160;BME280;50187;50.492;12.134;2023-09-19T01:00:45;96980.31;;;23.71;46.94
20160;BME280;50187;50.492;12.134;2023-09-19T01:03:11;96991.38;;;23.69;47.00
20160;BME280;50187;50.492;12.134;2023-09-19T01:05:40;96986.13;;;23.67;46.77
20160;BME280;50187;50.492;12.134;2023-09-19T01:08:07;96981.13;;;23.71;46.97
20160;BME280;50187;50.492;12.134;2023-09-19T01:10:33;96980.69;;;23.67;47.05
20160;BME280;50187;50.492;12.134;2023-09-19T01:29:49;96986.13;;;23.67;46.95
20160;BME280;50187;50.492;12.134;2023-09-19T01:32:18;96986.13;;;23.67;46.90
20160;BME280;50187;50.492;12.134;2023-09-19T01:37:21;96988.84;;;23.67;46.78
20160;BME280;50187;50.492;12.134;2023-09-19T01:39:54;96991.75;;;23.66;47.00
20160;BME280;50187;50.492;12.134;2023-09-19T01:42:29;96998.88;;;23.67;46.94
20160;BME280;50187;50.492;12.134;2023-09-19T01:45:33;96979.81;;;23.60;47.00
20160;BME280;50187;50.492;12.134;2023-09-19T01:50:44;96989.03;;;23.66;46.95
20160;BME280;50187;50.492;12.134;2023-09-19T01:55:57;96994.47;;;23.66;46.99
20160;BME280;50187;50.492;12.134;2023-09-19T01:58:27;96999.06;;;23.65;46.64
20160;BME280;50187;50.492;12.134;2023-09-19T02:00:57;96997.38;;;23.64;46.65
20160;BME280;50187;50.492;12.134;2023-09-19T02:03:26;97002.63;;;23.66;46.96
20160;BME280;50187;50.492;12.134;2023-09-19T02:05:55;97009.94;;;23.65;46.95
20160;BME280;50187;50.492;12.134;2023-09-19T02:08:22;97017.88;;;23.67;46.87
20160;BME280;50187;50.492;12.134;2023-09-19T02:10:52;97014.34;;;23.66;46.86
20160;BME280;50187;50.492;12.134;2023-09-19T02:13:20;97022.47;;;23.66;46.84
20160;BME280;50187;50.492;12.134;2023-09-19T02:15:47;97027.03;;;23.66;46.72
20160;BME280;50187;50.492;12.134;2023-09-19T02:18:14;97024.53;;;23.64;46.83
20160;BME280;50187;50.492;12.134;2023-09-19T02:20:41;97024.75;;;23.63;46.74
20160;BME280;50187;50.492;12.134;2023-09-19T02:23:09;97022.47;;;23.66;46.68
20160;BME280;50187;50.492;12.134;2023-09-19T02:25:36;97027.25;;;23.64;46.82
20160;BME280;50187;50.492;12.134;2023-09-19T02:28:04;97014.72;;;23.63;46.90
20160;BME280;50187;50.492;12.134;2023-09-19T02:30:32;97019.09;;;23.64;46.93
20160;BME280;50187;50.492;12.134;2023-09-19T02:32:59;97032.06;;;23.62;47.04
20160;BME280;50187;50.492;12.134;2023-09-19T02:35:29;97033.53;;;23.65;46.70
20160;BME280;50187;50.492;12.134;2023-09-19T02:38:02;97032.06;;;23.62;46.87
20160;BME280;50187;50.492;12.134;2023-09-19T02:40:33;97040.81;;;23.64;46.94
20160;BME280;50187;50.492;12.134;2023-09-19T02:43:02;97035.41;;;23.64;46.84
20160;BME280;50187;50.492;12.134;2023-09-19T02:45:29;97040.19;;;23.62;46.73
20160;BME280;50187;50.492;12.134;2023-09-19T02:47:56;97047.94;;;23.65;46.69
20160;BME280;50187;50.492;12.134;2023-09-19T02:50:24;97043.75;;;23.63;46.90
20160;BME280;50187;50.492;12.134;2023-09-19T02:52:50;97046.25;;;23.64;46.80
20160;BME280;50187;50.492;12.134;2023-09-19T02:55:18;97049.16;;;23.63;46.89
20160;BME280;50187;50.492;12.134;2023-09-19T02:57:48;97074.47;;;23.63;46.92
20160;BME280;50187;50.492;12.134;2023-09-19T03:00:16;97047.31;;;23.63;46.72
20160;BME280;50187;50.492;12.134;2023-09-19T03:02:43;97053.78;;;23.62;47.00
20160;BME280;50187;50.492;12.134;2023-09-19T03:05:11;97056.69;;;23.61;46.69
20160;BME280;50187;50.492;12.134;2023-09-19T03:07:38;97059.00;;;23.64;46.65
20160;BME280;50187;50.492;12.134;2023-09-19T03:10:06;97057.31;;;23.63;46.67
20160;BME280;50187;50.492;12.134;2023-09-19T03:12:34;97045.84;;;23.61;46.66
20160;BME280;50187;50.492;12.134;2023-09-19T03:15:01;97054.19;;;23.59;46.88
20160;BME280;50187;50.492;12.134;2023-09-19T03:17:28;97072.13;;;23.60;46.82
20160;BME280;50187;50.492;12.134;2023-09-19T03:19:55;97062.94;;;23.61;46.65
20160;BME280;50187;50.492;12.134;2023-09-19T03:22:21;97056.50;;;23.62;46.91
20160;BME280;50187;50.492;12.134;2023-09-19T03:24:48;97066.06;;;23.58;46.84
20160;BME280;50187;50.492;12.134;2023-09-19T03:27:15;97067.34;;;23.62;46.80
20160;BME280;50187;50.492;12.134;2023-09-19T03:29:42;97067.34;;;23.62;46.80
20160;BME280;50187;50.492;12.134;2023-09-19T03:32:09;97057.47;;;23.55;46.79
20160;BME280;50187;50.492;12.134;2023-09-19T03:34:39;97064.19;;;23.59;46.84
20160;BME280;50187;50.492;12.134;2023-09-19T03:37:11;97070.25;;;23.61;46.72
20160;BME280;50187;50.492;12.134;2023-09-19T03:39:37;97066.69;;;23.60;46.71
20160;BME280;50187;50.492;12.134;2023-09-19T03:42:04;97057.91;;;23.58;46.79
20160;BME280;50187;50.492;12.134;2023-09-19T03:44:32;97062.31;;;23.59;46.84
20160;BME280;50187;50.492;12.134;2023-09-19T03:46:59;97053.13;;;23.60;46.88
20160;BME280;50187;50.492;12.134;2023-09-19T03:49:26;97047.69;;;23.60;46.83
20160;BME280;50187;50.492;12.134;2023-09-19T03:51:53;97055.19;;;23.58;46.86
20160;BME280;50187;50.492;12.134;2023-09-19T03:54:20;97071.09;;;23.61;46.90
20160;BME280;50187;50.492;12.134;2023-09-19T03:56:48;97079.63;;;23.58;46.74
20160;BME280;50187;50.492;12.134;2023-09-19T03:59:14;97080.47;;;23.59;46.89
20160;BME280;50187;50.492;12.134;2023-09-19T04:01:41;97082.34;;;23.58;46.71
20160;BME280;50187;50.492;12.134;2023-09-19T04:04:08;97085.69;;;23.60;46.78
20160;BME280;50187;50.492;12.134;2023-09-19T04:06:35;97082.34;;;23.58;46.75
20160;BME280;50187;50.492;12.134;2023-09-19T04:09:03;97086.75;;;23.59;46.74
20160;BME280;50187;50.492;12.134;2023-09-19T04:11:30;97095.72;;;23.60;46.88
20160;BME280;50187;50.492;12.134;2023-09-19T04:13:57;97100.31;;;23.59;46.86
20160;BME280;50187;50.492;12.134;2023-09-19T04:16:24;97095.94;;;23.58;46.86
20160;BME280;50187;50.492;12.134;2023-09-19T04:18:50;97105.09;;;23.57;46.78
20160;BME280;50187;50.492;12.134;2023-09-19T04:21:17;97109.69;;;23.57;46.80
20160;BME280;50187;50.492;12.134;2023-09-19T04:23:44;97106.78;;;23.58;46.85
20160;BME280;50187;50.492;12.134;2023-09-19T04:26:11;97105.09;;;23.57;46.74
20160;BME280;50187;50.492;12.134;2023-09-19T04:28:38;97112.22;;;23.58;46.62
20160;BME280;50187;50.492;12.134;2023-09-19T04:31:06;97107.63;;;23.59;46.69
20160;BME280;50187;50.492;12.134;2023-09-19T04:33:34;97108.47;;;23.59;46.75
20160;BME280;50187;50.492;12.134;2023-09-19T04:36:02;97113.03;;;23.59;46.70
20160;BME280;50187;50.492;12.134;2023-09-19T04:38:49;97110.34;;;23.59;46.86
20160;BME280;50187;50.492;12.134;2023-09-19T04:41:16;97095.66;;;23.53;46.83
20160;BME280;50187;50.492;12.134;2023-09-19T04:43:43;97104.28;;;23.57;46.82
20160;BME280;50187;50.492;12.134;2023-09-19T04:46:10;97105.09;;;23.57;46.86
20160;BME280;50187;50.492;12.134;2023-09-19T04:48:37;97108.84;;;23.56;46.85
20160;BME280;50187;50.492;12.134;2023-09-19T04:51:04;97107.81;;;23.57;46.82
20160;BME280;50187;50.492;12.134;2023-09-19T04:53:31;97110.53;;;23.57;46.84
20160;BME280;50187;50.492;12.134;2023-09-19T04:55:57;97108.59;;;23.51;46.92
20160;BME280;50187;50.492;12.134;2023-09-19T04:58:24;97111.56;;;23.56;46.65
20160;BME280;50187;50.492;12.134;2023-09-19T05:00:51;97117.00;;;23.56;46.80
20160;BME280;50187;50.492;12.134;2023-09-19T05:03:17;97124.09;;;23.57;46.76
20160;BME280;50187;50.492;12.134;2023-09-19T05:05:47;97117.84;;;23.57;46.76
20160;BME280;50187;50.492;12.134;2023-09-19T05:08:14;97123.47;;;23.55;46.83
20160;BME280;50187;50.492;12.134;2023-09-19T05:10:41;97125.13;;;23.56;46.82
20160;BME280;50187;50.492;12.134;2023-09-19T05:13:08;97128.91;;;23.55;46.92
20160;BME280;50187;50.492;12.134;2023-09-19T05:15:34;97127.84;;;23.56;46.86
20160;BME280;50187;50.492;12.134;2023-09-19T05:18:02;97128.25;;;23.53;46.86
20160;BME280;50187;50.492;12.134;2023-09-19T05:20:29;97133.66;;;23.53;46.83
20160;BME280;50187;50.492;12.134;2023-09-19T05:23:06;97134.34;;;23.55;46.64
20160;BME280;50187;50.492;12.134;2023-09-19T05:25:40;97142.28;;;23.57;46.80
20160;BME280;50187;50.492;12.134;2023-09-19T05:28:07;97144.13;;;23.56;46.76
20160;BME280;50187;50.492;12.134;2023-09-19T05:30:35;97137.88;;;23.56;46.72
20160;BME280;50187;50.492;12.134;2023-09-19T05:33:05;97144.53;;;23.53;46.78
20160;BME280;50187;50.492;12.134;2023-09-19T05:35:32;97133.47;;;23.55;46.76
20160;BME280;50187;50.492;12.134;2023-09-19T05:37:59;97136.38;;;23.53;46.70
20160;BME280;50187;50.492;12.134;2023-09-19T05:40:26;97133.66;;;23.53;46.75
20160;BME280;50187;50.492;12.134;2023-09-19T05:42:53;97141.81;;;23.53;46.82
20160;BME280;50187;50.492;12.134;2023-09-19T05:45:20;97138.06;;;23.54;46.78
20160;BME280;50187;50.492;12.134;2023-09-19T05:47:50;97139.09;;;23.53;46.73
20160;BME280;50187;50.492;12.134;2023-09-19T05:50:17;97158.97;;;23.54;46.61
20160;BME280;50187;50.492;12.134;2023-09-19T05:52:52;97154.38;;;23.54;46.87
20160;BME280;50187;50.492;12.134;2023-09-19T05:55:19;97148.88;;;23.47;46.65
20160;BME280;50187;50.492;12.134;2023-09-19T05:57:53;97155.19;;;23.55;46.77
20160;BME280;50187;50.492;12.134;2023-09-19T06:00:21;97159.78;;;23.54;46.63
20160;BME280;50187;50.492;12.134;2023-09-19T06:02:56;97148.09;;;23.54;46.75
20160;BME280;50187;50.492;12.134;2023-09-19T06:05:25;97152.69;;;23.53;46.58
20160;BME280;50187;50.492;12.134;2023-09-19T06:07:53;97152.69;;;23.53;46.70
20160;BME280;50187;50.492;12.134;2023-09-19T06:10:20;97151.00;;;23.52;46.79
20160;BME280;50187;50.492;12.134;2023-09-19T06:12:47;97166.44;;;23.52;46.69
20160;BME280;50187;50.492;12.134;2023-09-19T06:15:15;97148.47;;;23.50;46.62
20160;BME280;50187;50.492;12.134;2023-09-19T06:20:15;97156.44;;;23.52;46.90
20160;BME280;50187;50.492;12.134;2023-09-19T06:22:44;97160.81;;;23.53;46.67
20160;BME280;50187;50.492;12.134;2023-09-19T06:25:12;97165.22;;;23.54;46.77
20160;BME280;50187;50.492;12.134;2023-09-19T06:27:46;97167.94;;;23.54;46.83
20160;BME280;50187;50.492;12.134;2023-09-19T06:30:13;97154.75;;;23.51;46.73
20160;BME280;50187;50.492;12.134;2023-09-19T06:32:44;97166.91;;;23.55;46.77
20160;BME280;50187;50.492;12.134;2023-09-19T06:35:12;97173.38;;;23.54;46.51
20160;BME280;50187;50.492;12.134;2023-09-19T06:37:39;97171.13;;;23.58;46.70
20160;BME280;50187;50.492;12.134;2023-09-19T06:40:08;97165.50;;;23.59;46.74
20160;BME280;50187;50.492;12.134;2023-09-19T06:42:44;97157.16;;;23.61;46.66
20160;BME280;50187;50.492;12.134;2023-09-19T06:45:14;97171.16;;;23.64;46.51
20160;BME280;50187;50.492;12.134;2023-09-19T06:47:46;97162.63;;;23.67;46.55
20160;BME280;50187;50.492;12.134;2023-09-19T06:50:18;97176.19;;;23.67;46.60
20160;BME280;50187;50.492;12.134;2023-09-19T06:52:46;97174.59;;;23.73;46.54
20160;BME280;50187;50.492;12.134;2023-09-19T06:55:21;97179.44;;;23.78;46.41
20160;BME280;50187;50.492;12.134;2023-09-19T06:57:50;97185.50;;;23.80;46.10
20160;BME280;50187;50.492;12.134;2023-09-19T07:00:16;97181.75;;;23.81;46.09
20160;BME280;50187;50.492;12.134;2023-09-19T07:02:55;97194.09;;;23.83;46.11
20160;BME280;50187;50.492;12.134;2023-09-19T07:05:22;97190.53;;;23.83;46.00
20160;BME280;50187;50.492;12.134;2023-09-19T07:07:49;97207.50;;;23.85;46.09
20160;BME280;50187;50.492;12.134;2023-09-19T07:10:16;97210.22;;;23.85;45.99
20160;BME280;50187;50.492;12.134;2023-09-19T07:12:42;97212.56;;;23.88;46.01
20160;BME280;50187;50.492;12.134;2023-09-19T07:15:09;97218.66;;;23.90;45.93
20160;BME280;50187;50.492;12.134;2023-09-19T07:17:36;97237.28;;;23.93;45.79
20160;BME280;50187;50.492;12.134;2023-09-19T07:20:03;97230.78;;;23.94;45.90
20160;BME280;50187;50.492;12.134;2023-09-19T07:22:34;97231.44;;;23.96;45.85
20160;BME280;50187;50.492;12.134;2023-09-19T07:25:01;97212.22;;;23.98;45.87
20160;BME280;50187;50.492;12.134;2023-09-19T07:27:27;97229.88;;;24.09;45.84
20160;BME280;50187;50.492;12.134;2023-09-19T07:29:54;97229.69;;;24.10;45.55
20160;BME280;50187;50.492;12.134;2023-09-19T07:32:20;97225.75;;;24.13;45.54
20160;BME280;50187;50.492;12.134;2023-09-19T07:34:47;97232.19;;;24.12;45.59
20160;BME280;50187;50.492;12.134;2023-09-19T07:37:14;97227.41;;;24.14;45.40
20160;BME280;50187;50.492;12.134;2023-09-19T07:39:42;97233.91;;;24.13;45.35
20160;BME280;50187;50.492;12.134;2023-09-19T07:42:09;97231.81;;;24.15;45.37
20160;BME280;50187;50.492;12.134;2023-09-19T07:44:38;97232.63;;;24.15;45.25
20160;BME280;50187;50.492;12.134;2023-09-19T07:47:04;97239.34;;;24.20;45.35
20160;BME280;50187;50.492;12.134;2023-09-19T07:49:31;97240.63;;;24.17;45.27
20160;BME280;50187;50.492;12.134;2023-09-19T07:51:58;97251.63;;;24.09;45.42
20160;BME280;50187;50.492;12.134;2023-09-19T07:54:25;97259.38;;;24.12;45.56
20160;BME280;50187;50.492;12.134;2023-09-19T07:56:53;97253.53;;;24.15;45.40
20160;BME280;50187;50.492;12.134;2023-09-19T07:59:20;97256.00;;;24.10;45.19
20160;BME280;50187;50.492;12.134;2023-09-19T08:01:47;97265.44;;;24.14;45.14
20160;BME280;50187;50.492;12.134;2023-09-19T08:04:15;97268.16;;;24.14;45.42
20160;BME280;50187;50.492;12.134;2023-09-19T08:06:41;97272.97;;;24.12;45.54
20160;BME280;50187;50.492;12.134;2023-09-19T08:09:10;97280.66;;;24.08;45.54
20160;BME280;50187;50.492;12.134;2023-09-19T08:11:37;97285.06;;;24.09;45.34
20160;BME280;50187;50.492;12.134;2023-09-19T08:14:05;97291.31;;;24.10;45.42
20160;BME280;50187;50.492;12.134;2023-09-19T08:16:34;97287.97;;;24.08;45.38
20160;BME280;50187;50.492;12.134;2023-09-19T08:19:01;97297.34;;;24.05;45.47
20160;BME280;50187;50.492;12.134;2023-09-19T08:21:28;97295.50;;;24.06;45.61
20160;BME280;50187;50.492;12.134;2023-09-19T08:23:56;97303.81;;;24.04;45.56
20160;BME280;50187;50.492;12.134;2023-09-19T08:26:23;97311.97;;;24.04;45.49
20160;BME280;50187;50.492;12.134;2023-09-19T08:28:50;97308.22;;;24.05;45.39
20160;BME280;50187;50.492;12.134;2023-09-19T08:31:18;97309.25;;;24.04;45.64
20160;BME280;50187;50.492;12.134;2023-09-19T08:33:44;97304.09;;;24.09;45.24
20160;BME280;50187;50.492;12.134;2023-09-19T08:36:15;97304.09;;;24.09;45.18
20160;BME280;50187;50.492;12.134;2023-09-19T08:38:42;97317.28;;;24.12;45.30
20160;BME280;50187;50.492;12.134;2023-09-19T08:41:08;97310.81;;;24.13;45.28
20160;BME280;50187;50.492;12.134;2023-09-19T08:43:36;97310.63;;;24.15;45.13
20160;BME280;50187;50.492;12.134;2023-09-19T08:46:09;97321.09;;;24.18;45.13
20160;BME280;50187;50.492;12.134;2023-09-19T08:48:41;97309.19;;;24.19;45.09
20160;BME280;50187;50.492;12.134;2023-09-19T08:51:21;97324.06;;;24.23;45.05
20160;BME280;50187;50.492;12.134;2023-09-19T08:54:03;97321.34;;;24.23;45.04
20160;BME280;50187;50.492;12.134;2023-09-19T08:56:33;97334.75;;;24.25;44.88
20160;BME280;50187;50.492;12.134;2023-09-19T08:59:02;97330.53;;;24.22;44.86
20160;BME280;50187;50.492;12.134;2023-09-19T09:01:31;97332.44;;;24.22;44.99
20160;BME280;50187;50.492;12.134;2023-09-19T09:03:59;97329.91;;;24.20;44.98
20160;BME280;50187;50.492;12.134;2023-09-19T09:06:27;97325.50;;;24.19;44.98
20160;BME280;50187;50.492;12.134;2023-09-19T09:08:59;97326.72;;;24.16;44.96
20160;BME280;50187;50.492;12.134;2023-09-19T09:11:26;97327.59;;;24.17;45.14
20160;BME280;50187;50.492;12.134;2023-09-19T09:13:54;97321.22;;;24.10;45.08
20160;BME280;50187;50.492;12.134;2023-09-19T09:16:21;97339.00;;;24.12;45.21
20160;BME280;50187;50.492;12.134;2023-09-19T09:18:52;97326.47;;;24.11;45.10
20160;BME280;50187;50.492;12.134;2023-09-19T09:21:21;97323.75;;;24.11;45.15
20160;BME280;50187;50.492;12.134;2023-09-19T09:23:49;97338.56;;;24.09;44.94
20160;BME280;50187;50.492;12.134;2023-09-19T09:26:41;97341.28;;;24.09;45.04
20160;BME280;50187;50.492;12.134;2023-09-19T09:29:09;97338.78;;;24.07;44.88
20160;BME280;50187;50.492;12.134;2023-09-19T09:31:35;97355.44;;;24.04;45.10
20160;BME280;50187;50.492;12.134;2023-09-19T09:34:03;97339.34;;;24.03;45.11
20160;BME280;50187;50.492;12.134;2023-09-19T09:36:39;97350.41;;;24.01;45.04
20160;BME280;50187;50.492;12.134;2023-09-19T09:39:10;97345.81;;;24.02;45.24
20160;BME280;50187;50.492;12.134;2023-09-19T09:41:44;97352.72;;;24.04;45.23
20160;BME280;50187;50.492;12.134;2023-09-19T09:44:16;97339.81;;;24.06;45.08
20160;BME280;50187;50.492;12.134;2023-09-19T09:46:46;97342.94;;;24.10;45.11
20160;BME280;50187;50.492;12.134;2023-09-19T09:49:27;97334.81;;;24.10;45.10
20160;BME280;50187;50.492;12.134;2023-09-19T09:52:04;97342.94;;;24.10;44.99
20160;BME280;50187;50.492;12.134;2023-09-19T09:55:02;97335.84;;;24.09;45.17
20160;BME280;50187;50.492;12.134;2023-09-19T09:57:32;97335.00;;;24.08;45.22
20160;BME280;50187;50.492;12.134;2023-09-19T10:00:00;97335.00;;;24.08;45.24
20160;BME280;50187;50.492;12.134;2023-09-19T10:02:39;97333.34;;;24.07;45.08
20160;BME280;50187;50.492;12.134;2023-09-19T10:05:16;97354.22;;;24.07;45.08
20160;BME280;50187;50.492;12.134;2023-09-19T10:07:52;97338.97;;;24.06;45.32
20160;BME280;50187;50.492;12.134;2023-09-19T10:10:40;97347.13;;;24.06;45.02
20160;BME280;50187;50.492;12.134;2023-09-19T10:13:08;97341.84;;;24.04;45.23
20160;BME280;50187;50.492;12.134;2023-09-19T10:15:39;97345.44;;;24.05;45.07
20160;BME280;50187;50.492;12.134;2023-09-19T10:18:10;97349.16;;;24.04;45.02
20160;BME280;50187;50.492;12.134;2023-09-19T10:20:37;97339.13;;;24.04;45.20
20160;BME280;50187;50.492;12.134;2023-09-19T10:23:07;97343.53;;;24.05;45.20
20160;BME280;50187;50.492;12.134;2023-09-19T10:25:41;97341.28;;;24.09;44.92
20160;BME280;50187;50.492;12.134;2023-09-19T10:28:10;97341.94;;;24.11;45.09
20160;BME280;50187;50.492;12.134;2023-09-19T10:30:44;97339.88;;;24.13;44.98
20160;BME280;50187;50.492;12.134;2023-09-19T10:33:15;97343.22;;;24.15;44.91
20160;BME280;50187;50.492;12.134;2023-09-19T10:35:44;97340.31;;;24.16;44.87
20160;BME280;50187;50.492;12.134;2023-09-19T10:38:18;97338.25;;;24.18;44.74
20160;BME280;50187;50.492;12.134;2023-09-19T10:40:49;97331.56;;;24.21;44.62
20160;BME280;50187;50.492;12.134;2023-09-19T10:43:17;97327.81;;;24.22;44.71
20160;BME280;50187;50.492;12.134;2023-09-19T10:45:45;97332.03;;;24.25;44.77
20160;BME280;50187;50.492;12.134;2023-09-19T10:48:16;97329.31;;;24.25;44.71
20160;BME280;50187;50.492;12.134;2023-09-19T10:50:50;97330.16;;;24.25;44.43
20160;BME280;50187;50.492;12.134;2023-09-19T10:53:17;97329.13;;;24.26;44.42
20160;BME280;50187;50.492;12.134;2023-09-19T10:55:59;97325.38;;;24.27;44.59
20160;BME280;50187;50.492;12.134;2023-09-19T10:58:27;97332.28;;;24.30;44.47
20160;BME280;50187;50.492;12.134;2023-09-19T11:01:03;97325.09;;;24.22;44.35
20160;BME280;50187;50.492;12.134;2023-09-19T11:03:39;97322.25;;;24.30;44.41
20160;BME280;50187;50.492;12.134;2023-09-19T11:06:14;97333.97;;;24.31;44.53
20160;BME280;50187;50.492;12.134;2023-09-19T11:14:32;97334.81;;;24.31;44.33
20160;BME280;50187;50.492;12.134;2023-09-19T11:30:33;97328.47;;;24.24;44.53
20160;BME280;50187;50.492;12.134;2023-09-19T11:33:19;97314.69;;;24.26;44.46
20160;BME280;50187;50.492;12.134;2023-09-19T11:36:13;97331.44;;;24.29;44.37
20160;BME280;50187;50.492;12.134;2023-09-19T11:46:27;97321.78;;;24.27;44.29
20160;BME280;50187;50.492;12.134;2023-09-19T11:48:54;97322.66;;;24.27;44.31
20160;BME280;50187;50.492;12.134;2023-09-19T11:51:23;97328.72;;;24.29;44.50
20160;BME280;50187;50.492;12.134;2023-09-19T11:53:56;97330.59;;;24.29;44.36
20160;BME280;50187;50.492;12.134;2023-09-19T11:56:25;97331.06;;;24.32;44.57
20160;BME280;50187;50.492;12.134;2023-09-19T11:58:55;97320.84;;;24.34;44.39
20160;BME280;50187;50.492;12.134;2023-09-19T12:01:33;97319.41;;;24.39;44.36
20160;BME280;50187;50.492;12.134;2023-09-19T12:04:02;97325.28;;;24.42;44.33
20160;BME280;50187;50.492;12.134;2023-09-19T12:06:31;97314.41;;;24.42;44.33
20160;BME280;50187;50.492;12.134;2023-09-19T12:09:02;97322.81;;;24.47;44.01
20160;BME280;50187;50.492;12.134;2023-09-19T12:11:41;97322.22;;;24.52;44.14
20160;BME280;50187;50.492;12.134;2023-09-19T12:14:09;97314.06;;;24.52;44.04
20160;BME280;50187;50.492;12.134;2023-09-19T12:16:36;97332.72;;;24.55;43.90
20160;BME280;50187;50.492;12.134;2023-09-19T12:19:19;97328.53;;;24.59;43.83
20160;BME280;50187;50.492;12.134;2023-09-19T12:21:55;97327.53;;;24.60;43.61
20160;BME280;50187;50.492;12.134;2023-09-19T12:24:26;97317.03;;;24.57;43.86
20160;BME280;50187;50.492;12.134;2023-09-19T12:27:06;97314.81;;;24.61;43.68
20160;BME280;50187;50.492;12.134;2023-09-19T12:29:49;97312.91;;;24.61;43.58
20160;BME280;50187;50.492;12.134;2023-09-19T12:32:16;97312.72;;;24.63;43.79
20160;BME280;50187;50.492;12.134;2023-09-19T12:34:52;97316.66;;;24.60;43.61
20160;BME280;50187;50.492;12.134;2023-09-19T12:37:20;97319.00;;;24.63;43.66
20160;BME280;50187;50.492;12.134;2023-09-19T12:40:03;97311.22;;;24.60;43.69
20160;BME280;50187;50.492;12.134;2023-09-19T12:42:41;97312.09;;;24.61;43.76
20160;BME280;50187;50.492;12.134;2023-09-19T12:45:08;97318.34;;;24.61;43.50
20160;BME280;50187;50.492;12.134;2023-09-19T12:47:35;97317.53;;;24.61;43.60
20160;BME280;50187;50.492;12.134;2023-09-19T12:50:05;97319.56;;;24.59;43.75
20160;BME280;50187;50.492;12.134;2023-09-19T12:52:55;97309.09;;;24.56;43.75
20160;BME280;50187;50.492;12.134;2023-09-19T12:55:27;97310.09;;;24.55;43.67
20160;BME280;50187;50.492;12.134;2023-09-19T13:00:40;97302.97;;;24.53;43.86
20160;BME280;50187;50.492;12.134;2023-09-19T13:05:56;97319.50;;;24.52;43.54
20160;BME280;50187;50.492;12.134;2023-09-19T13:11:12;97319.50;;;24.52;43.67
20160;BME280;50187;50.492;12.134;2023-09-19T13:13:40;97312.41;;;24.51;43.90
20160;BME280;50187;50.492;12.134;2023-09-19T13:16:08;97303.59;;;24.49;43.48
20160;BME280;50187;50.492;12.134;2023-09-19T13:18:45;97314.25;;;24.50;43.65
20160;BME280;50187;50.492;12.134;2023-09-19T13:21:14;97304.19;;;24.44;43.52
20160;BME280;50187;50.492;12.134;2023-09-19T13:23:58;97311.09;;;24.47;43.49
20160;BME280;50187;50.492;12.134;2023-09-19T13:26:40;97306.91;;;24.44;43.49
20160;BME280;50187;50.492;12.134;2023-09-19T13:29:07;97305.66;;;24.47;43.42
20160;BME280;50187;50.492;12.134;2023-09-19T13:31:33;97306.69;;;24.46;43.50
20160;BME280;50187;50.492;12.134;2023-09-19T13:34:00;97325.72;;;24.46;43.51
20160;BME280;50187;50.492;12.134;2023-09-19T13:36:27;97315.25;;;24.43;43.49
20160;BME280;50187;50.492;12.134;2023-09-19T13:38:54;97329.47;;;24.45;43.48
20160;BME280;50187;50.492;12.134;2023-09-19T13:41:22;97326.13;;;24.43;43.43
20160;BME280;50187;50.492;12.134;2023-09-19T13:43:48;97327.56;;;24.39;43.53
20160;BME280;50187;50.492;12.134;2023-09-19T13:46:16;97316.69;;;24.39;43.48
20160;BME280;50187;50.492;12.134;2023-09-19T13:48:44;97322.94;;;24.39;43.57
20160;BME280;50187;50.492;12.134;2023-09-19T13:51:10;97325.88;;;24.38;43.37
20160;BME280;50187;50.492;12.134;2023-09-19T13:53:37;97312.03;;;24.32;43.63
20160;BME280;50187;50.492;12.134;2023-09-19T13:56:03;97331.69;;;24.34;43.56
20160;BME280;50187;50.492;12.134;2023-09-19T13:58:30;97325.63;;;24.32;43.40
20160;BME280;50187;50.492;12.134;2023-09-19T14:01:00;97326.66;;;24.31;43.62
20160;BME280;50187;50.492;12.134;2023-09-19T14:03:27;97322.66;;;24.27;43.22
20160;BME280;50187;50.492;12.134;2023-09-19T14:05:55;97323.88;;;24.25;43.26